Time;durP1;ratioP1;P1;durP2;ratioP2;P2;SDS_P1;SDS_P2;PMS_P1;PMS_P2;Temp;Humidity;BMP_temperature;BMP_pressure;BME280_temperature;BME280_humidity;BME280_pressure;Samples;Min_cycle;Max_cycle;Signal;HPM_P1;HPM_P2
2023/03/07 00:09:29;;;;;;;16.8;8.6;;;;;;;1.1;77.6;97490;;;;
2023/03/07 00:19:29;;;;;;;16.8;8.6;;;;;;;1.2;77.2;97480;;;;
2023/03/07 00:30:29;;;;;;;19.7;7.7;;;;;;;1.1;76.8;97470;;;;
2023/03/07 00:40:29;;;;;;;19.7;7.7;;;;;;;1.1;76.9;97460;;;;
2023/03/07 00:51:29;;;;;;;14;8.2;;;;;;;1;77.1;97460;;;;
2023/03/07 01:01:29;;;;;;;14;8.2;;;;;;;1;77.2;97450;;;;
2023/03/07 01:11:29;;;;;;;14;8.2;;;;;;;1.1;77.2;97440;;;;
2023/03/07 01:22:29;;;;;;;14.7;7.7;;;;;;;1.3;77.1;97430;;;;
2023/03/07 01:33:29;;;;;;;14.7;7.7;;;;;;;1.5;76.9;97430;;;;
2023/03/07 01:44:29;;;;;;;14.7;7.7;;;;;;;1.8;76.3;97420;;;;
2023/03/07 01:54:29;;;;;;;13.4;7.3;;;;;;;1.8;75.9;97420;;;;
2023/03/07 02:05:29;;;;;;;13.4;7.3;;;;;;;1.8;75.6;97410;;;;
2023/03/07 02:15:29;;;;;;;13.4;7.3;;;;;;;1.8;75.6;97410;;;;
2023/03/07 02:26:29;;;;;;;15;7.9;;;;;;;1.9;75.8;97410;;;;
2023/03/07 02:37:29;;;;;;;15;7.9;;;;;;;2;75.5;97410;;;;
2023/03/07 02:48:30;;;;;;;15;7.9;;;;;;;2.1;75.3;97400;;;;
2023/03/07 02:58:30;;;;;;;14;9.1;;;;;;;2.1;75.2;97400;;;;
2023/03/07 03:09:30;;;;;;;14;9.1;;;;;;;1.9;75.2;97410;;;;
2023/03/07 03:19:29;;;;;;;14.4;8.1;;;;;;;1.7;75.5;97400;;;;
2023/03/07 03:30:34;;;;;;;14.4;8.1;;;;;;;1.5;76.2;97400;;;;
2023/03/07 03:40:30;;;;;;;14.4;8.1;;;;;;;1.5;76.7;97400;;;;
2023/03/07 03:50:29;;;;;;;17.2;8.1;;;;;;;1.5;76.6;97400;;;;
2023/03/07 04:01:30;;;;;;;17.2;8.1;;;;;;;1.6;76.5;97410;;;;
2023/03/07 04:12:29;;;;;;;17.2;8.1;;;;;;;1.7;76.5;97410;;;;
2023/03/07 04:23:29;;;;;;;15.9;8.5;;;;;;;1.8;76.4;97410;;;;
2023/03/07 04:34:29;;;;;;;15.9;8.5;;;;;;;1.8;76.5;97400;;;;
2023/03/07 04:44:29;;;;;;;15.9;8.5;;;;;;;1.9;76.7;97400;;;;
2023/03/07 04:55:30;;;;;;;14;7.9;;;;;;;1.9;76.3;97400;;;;
2023/03/07 05:05:29;;;;;;;14;7.9;;;;;;;1.9;76.2;97390;;;;
2023/03/07 05:16:30;;;;;;;14;7.9;;;;;;;2;76;97400;;;;
2023/03/07 05:27:29;;;;;;;12.8;8.1;;;;;;;2.1;75.3;97400;;;;
2023/03/07 05:37:29;;;;;;;12.8;8.1;;;;;;;2.2;75.1;97390;;;;
2023/03/07 05:48:29;;;;;;;12.8;8.1;;;;;;;2.2;74.8;97390;;;;
2023/03/07 05:58:29;;;;;;;15.1;8.8;;;;;;;2.3;74.7;97390;;;;
2023/03/07 06:08:29;;;;;;;15.1;8.8;;;;;;;2.3;74.7;97390;;;;
2023/03/07 06:18:30;;;;;;;15.1;8.8;;;;;;;2.3;74.8;97390;;;;
2023/03/07 06:29:29;;;;;;;18.1;9.9;;;;;;;2.3;74.5;97390;;;;
2023/03/07 06:39:29;;;;;;;18.1;9.9;;;;;;;2.4;74.3;97400;;;;
2023/03/07 06:49:30;;;;;;;15.2;8;;;;;;;2.6;73.8;97410;;;;
2023/03/07 07:00:29;;;;;;;15.2;8;;;;;;;2.8;73.3;97400;;;;
2023/03/07 07:11:30;;;;;;;15.2;8;;;;;;;3;72.3;97390;;;;
2023/03/07 07:21:30;;;;;;;14.7;8.4;;;;;;;3.2;71.7;97390;;;;
2023/03/07 07:31:30;;;;;;;14.7;8.4;;;;;;;3.6;70.7;97390;;;;
2023/03/07 07:42:30;;;;;;;14.7;8.4;;;;;;;4;69.1;97390;;;;
2023/03/07 07:52:30;;;;;;;15.4;9;;;;;;;4.3;67.8;97390;;;;
2023/03/07 07:58:08;;;;;;;15.4;9;;;;;;;4.6;67.9;97390;;;;
2023/03/07 08:08:07;;;;;;;15.4;9;;;;;;;4.7;66.2;97380;;;;
2023/03/07 08:19:08;;;;;;;15;10.2;;;;;;;5;65.4;97370;;;;
2023/03/07 08:30:08;;;;;;;15;10.2;;;;;;;5.2;64.2;97370;;;;
2023/03/07 08:41:07;;;;;;;15;10.2;;;;;;;5.4;63.5;97360;;;;
2023/03/07 08:52:07;;;;;;;14.2;10.3;;;;;;;6;63;97360;;;;
2023/03/07 09:03:07;;;;;;;14.2;10.3;;;;;;;6.4;60.2;97360;;;;
2023/03/07 09:13:07;;;;;;;14.2;10.3;;;;;;;6.6;59.2;97360;;;;
2023/03/07 09:23:08;;;;;;;12.7;9.2;;;;;;;6.7;57.6;97350;;;;
2023/03/07 09:34:07;;;;;;;12.7;9.2;;;;;;;6.9;56.6;97350;;;;
2023/03/07 09:44:07;;;;;;;12.7;9.2;;;;;;;6.9;56.5;97330;;;;
2023/03/07 09:55:08;;;;;;;13.7;10.3;;;;;;;7.2;55;97320;;;;
2023/03/07 10:06:08;;;;;;;13.7;10.3;;;;;;;7;55.5;97310;;;;
2023/03/07 10:16:07;;;;;;;13.7;10.3;;;;;;;7.8;55.9;97300;;;;
2023/03/07 10:26:08;;;;;;;12.2;9.7;;;;;;;7.5;54.7;97300;;;;
2023/03/07 10:37:08;;;;;;;12.2;9.7;;;;;;;7.4;55.1;97290;;;;
2023/03/07 10:48:08;;;;;;;12.2;8.7;;;;;;;6.9;54;97280;;;;
2023/03/07 10:59:08;;;;;;;12.2;8.7;;;;;;;6.6;54.7;97260;;;;
2023/03/07 11:09:08;;;;;;;12.2;8.7;;;;;;;6.9;55.1;97260;;;;
2023/03/07 11:19:08;;;;;;;11.4;8.2;;;;;;;6.8;55.3;97240;;;;
2023/03/07 11:29:08;;;;;;;11.4;8.2;;;;;;;7;55.5;97240;;;;
2023/03/07 11:40:08;;;;;;;11.4;8.2;;;;;;;7.4;54.6;97230;;;;
2023/03/07 11:51:08;;;;;;;14.5;9.9;;;;;;;7.6;54.9;97210;;;;
2023/03/07 12:01:08;;;;;;;14.5;9.9;;;;;;;7.6;54;97200;;;;
2023/03/07 12:12:08;;;;;;;14.5;9.9;;;;;;;8;53.4;97200;;;;
2023/03/07 12:22:08;;;;;;;11.3;8.7;;;;;;;7.8;53.6;97190;;;;
2023/03/07 12:33:08;;;;;;;11.3;8.7;;;;;;;8;53.8;97190;;;;
2023/03/07 12:43:08;;;;;;;11.3;8.7;;;;;;;7.9;54.2;97180;;;;
2023/03/07 12:54:08;;;;;;;12;9.1;;;;;;;8.1;54.9;97190;;;;
2023/03/07 13:04:08;;;;;;;12;9.1;;;;;;;8;53.9;97180;;;;
2023/03/07 13:14:08;;;;;;;12;9.1;;;;;;;7.9;54.4;97170;;;;
2023/03/07 13:24:08;;;;;;;13;9.7;;;;;;;7.7;54.1;97170;;;;
2023/03/07 13:34:08;;;;;;;13;9.7;;;;;;;8;55.3;97160;;;;
2023/03/07 13:44:08;;;;;;;13;9.7;;;;;;;8.1;54.8;97150;;;;
2023/03/07 13:54:08;;;;;;;16.2;9.6;;;;;;;7.8;54.6;97140;;;;
2023/03/07 14:04:08;;;;;;;16.2;9.6;;;;;;;7.6;55;97130;;;;
2023/03/07 14:15:08;;;;;;;16.2;9.6;;;;;;;7.5;55.9;97120;;;;
2023/03/07 14:26:08;;;;;;;14.3;10.3;;;;;;;7.4;55.1;97110;;;;
2023/03/07 14:36:08;;;;;;;14.3;10.3;;;;;;;7.3;55.6;97110;;;;
2023/03/07 14:47:09;;;;;;;14.3;10.3;;;;;;;7.5;55.9;97100;;;;
2023/03/07 14:58:08;;;;;;;14.2;9.5;;;;;;;7.4;55.5;97090;;;;
2023/03/07 15:09:08;;;;;;;14.2;9.5;;;;;;;7.6;54.3;97080;;;;
2023/03/07 15:19:08;;;;;;;13.2;9.2;;;;;;;7.7;54.2;97080;;;;
2023/03/07 15:29:08;;;;;;;13.2;9.2;;;;;;;7.7;53.5;97070;;;;
2023/03/07 15:39:08;;;;;;;13.2;9.2;;;;;;;7.7;54.1;97070;;;;
2023/03/07 15:49:08;;;;;;;13.9;9.8;;;;;;;7.3;54.2;97070;;;;
2023/03/07 16:00:08;;;;;;;13.9;9.8;;;;;;;6.7;56.1;97070;;;;
2023/03/07 16:11:08;;;;;;;13.9;9.8;;;;;;;6.3;57;97070;;;;
2023/03/07 16:21:08;;;;;;;14.9;10.2;;;;;;;6;58.5;97070;;;;
2023/03/07 16:32:08;;;;;;;14.9;10.2;;;;;;;5.7;59.5;97060;;;;
2023/03/07 16:42:08;;;;;;;14.9;10.2;;;;;;;5.5;60.5;97060;;;;
2023/03/07 16:52:08;;;;;;;12.7;8.8;;;;;;;5.3;61.7;97060;;;;
2023/03/07 17:03:08;;;;;;;12.7;8.8;;;;;;;5.2;62.6;97060;;;;
2023/03/07 17:13:08;;;;;;;12.7;8.8;;;;;;;5.1;63.6;97060;;;;
2023/03/07 17:24:08;;;;;;;18.1;10.3;;;;;;;5;64.7;97070;;;;
2023/03/07 17:34:08;;;;;;;18.1;10.3;;;;;;;5;64.9;97070;;;;
2023/03/07 17:44:08;;;;;;;18.1;10.3;;;;;;;5;65.5;97060;;;;
2023/03/07 17:54:08;;;;;;;20.3;11.8;;;;;;;5;65.5;97050;;;;
2023/03/07 18:05:08;;;;;;;20.3;11.8;;;;;;;5;66.2;97040;;;;
2023/03/07 18:15:08;;;;;;;20.3;11.8;;;;;;;4.9;67.1;97040;;;;
2023/03/07 18:26:08;;;;;;;23.1;13.9;;;;;;;4.9;67.4;97030;;;;
2023/03/07 18:37:10;;;;;;;23.1;13.9;;;;;;;4.9;67.4;97020;;;;
2023/03/07 18:47:09;;;;;;;23.1;13.9;;;;;;;4.8;67.9;97010;;;;
2023/03/07 18:57:08;;;;;;;22.9;15;;;;;;;4.8;68.1;97010;;;;
2023/03/07 19:08:08;;;;;;;22.9;15;;;;;;;4.9;67.7;97010;;;;
2023/03/07 19:18:08;;;;;;;22.4;12.3;;;;;;;5;67.3;97010;;;;
2023/03/07 19:29:10;;;;;;;22.4;12.3;;;;;;;5;67.1;97000;;;;
2023/03/07 19:40:08;;;;;;;22.4;12.3;;;;;;;5.1;66.5;97000;;;;
2023/03/07 19:51:08;;;;;;;20.9;12.2;;;;;;;5.2;66.3;96990;;;;
2023/03/07 20:01:08;;;;;;;20.9;12.2;;;;;;;5.2;65.9;96990;;;;
2023/03/07 20:12:09;;;;;;;20.9;12.2;;;;;;;5.2;65.7;96990;;;;
2023/03/07 20:23:08;;;;;;;21.9;12.6;;;;;;;5.4;64.8;96990;;;;
2023/03/07 20:34:08;;;;;;;21.9;12.6;;;;;;;5.5;64;96980;;;;
2023/03/07 20:44:08;;;;;;;21.9;12.6;;;;;;;5.7;63.5;96960;;;;
2023/03/07 20:54:08;;;;;;;15.2;10.3;;;;;;;5.8;63.5;96960;;;;
2023/03/07 21:04:10;;;;;;;15.2;10.3;;;;;;;5.9;63.2;96950;;;;
2023/03/07 21:15:09;;;;;;;15.2;10.3;;;;;;;6;62.9;96950;;;;
2023/03/07 21:26:08;;;;;;;15.7;9.3;;;;;;;6;63.3;96950;;;;
2023/03/07 21:36:08;;;;;;;15.7;9.3;;;;;;;6.1;63.9;96940;;;;
2023/03/07 21:46:08;;;;;;;15.7;9.3;;;;;;;6.2;64.3;96940;;;;
2023/03/07 21:57:08;;;;;;;13.9;8.8;;;;;;;6.2;64.5;96940;;;;
2023/03/07 22:07:08;;;;;;;13.9;8.8;;;;;;;6.2;65.1;96950;;;;
2023/03/07 22:17:08;;;;;;;13.8;8.9;;;;;;;6.1;65.8;96940;;;;
2023/03/07 22:27:08;;;;;;;13.8;8.9;;;;;;;6.1;66;96950;;;;
2023/03/07 22:38:08;;;;;;;13.8;8.9;;;;;;;6.1;66.6;96940;;;;
2023/03/07 22:48:08;;;;;;;15.7;8.4;;;;;;;6.1;67.1;96930;;;;
2023/03/07 22:58:08;;;;;;;15.7;8.4;;;;;;;6.1;67.3;96920;;;;
2023/03/07 23:09:08;;;;;;;15.7;8.4;;;;;;;6.1;67.5;96930;;;;
2023/03/07 23:20:08;;;;;;;12.1;8.1;;;;;;;6;67.8;96930;;;;
2023/03/07 23:30:08;;;;;;;12.1;8.1;;;;;;;5.9;68.1;96930;;;;
2023/03/07 23:41:08;;;;;;;12.1;8.1;;;;;;;5.9;68;96940;;;;
2023/03/07 23:51:08;;;;;;;12.4;8.4;;;;;;;5.9;68;96940;;;;
